Time;durP1;ratioP1;P1;durP2;ratioP2;P2;SDS_P1;SDS_P2;PMS_P1;PMS_P2;Temp;Humidity;BMP_temperature;BMP_pressure;BME280_temperature;BME280_humidity;BME280_pressure;Samples;Min_cycle;Max_cycle;Signal;HPM_P1;HPM_P2
2022/05/10 00:01:35;;;;;;;3.47;0.80;;;;;;;17.77;34.61;101555.28;4994819;28;20026;-48
2022/05/10 00:04:02;;;;;;;3.33;0.80;;;;;;;17.31;35.86;101559.56;5004029;28;20045;-50
2022/05/10 00:06:34;;;;;;;2.13;0.70;;;;;;;17.33;35.74;101562.88;4993656;28;20042;-51
2022/05/10 00:09:01;;;;;;;2.45;0.60;;;;;;;17.21;37.37;101553.88;4998495;28;20029;-51
2022/05/10 00:11:28;;;;;;;1.73;0.70;;;;;;;17.05;37.30;101567.06;4995290;28;20106;-48
2022/05/10 00:13:54;;;;;;;1.50;0.50;;;;;;;17.08;37.30;101549.53;5008147;28;20207;-50
2022/05/10 00:16:20;;;;;;;2.65;0.60;;;;;;;17.00;37.04;101547.97;5015079;28;20026;-50
2022/05/10 00:18:47;;;;;;;3.13;0.93;;;;;;;16.89;38.45;101551.47;5015008;28;20156;-51
2022/05/10 00:21:19;;;;;;;4.60;1.20;;;;;;;16.78;37.72;101554.97;5014832;28;20046;-50
2022/05/10 00:23:45;;;;;;;2.88;0.77;;;;;;;16.95;37.86;101555.13;5014208;28;20028;-50
2022/05/10 00:26:12;;;;;;;4.38;0.68;;;;;;;16.92;37.46;101561.00;5009971;28;20027;-48
2022/05/10 00:28:38;;;;;;;2.80;0.70;;;;;;;16.72;37.20;101569.41;5008508;28;20579;-50
2022/05/10 00:31:05;;;;;;;4.05;0.93;;;;;;;16.88;37.22;101574.19;5014498;28;20029;-51
2022/05/10 00:33:32;;;;;;;3.13;0.68;;;;;;;16.91;36.84;101572.88;5014057;28;20018;-47
2022/05/10 00:35:59;;;;;;;2.53;0.75;;;;;;;16.86;37.26;101568.16;5008893;28;20041;-50
2022/05/10 00:38:32;;;;;;;2.72;0.68;;;;;;;16.58;37.86;101574.94;5000454;28;20033;-46
2022/05/10 00:41:06;;;;;;;2.60;0.65;;;;;;;16.55;38.67;101574.59;4975313;28;20023;-47
2022/05/10 00:43:36;;;;;;;3.50;0.75;;;;;;;16.51;39.09;101565.28;4982333;28;20045;-50
2022/05/10 00:46:14;;;;;;;1.83;0.70;;;;;;;16.42;38.32;101578.25;4994748;28;20034;-50
2022/05/10 00:48:59;;;;;;;4.15;0.90;;;;;;;16.37;38.67;101578.13;4994571;28;20034;-49
2022/05/10 00:51:41;;;;;;;2.63;0.97;;;;;;;16.48;38.67;101577.34;5005908;28;20532;-50
2022/05/10 00:54:22;;;;;;;4.00;0.80;;;;;;;16.21;38.96;101573.31;5020996;23;20264;-49
2022/05/10 00:56:58;;;;;;;2.67;0.98;;;;;;;16.26;38.82;101574.28;5005551;28;20030;-47
2022/05/10 00:59:40;;;;;;;3.65;1.00;;;;;;;16.30;39.18;101582.78;4996117;28;20018;-50
2022/05/10 01:02:22;;;;;;;4.20;0.93;;;;;;;16.12;39.51;101580.09;5007167;28;20025;-51
2022/05/10 01:04:54;;;;;;;5.95;1.15;;;;;;;16.08;40.00;101571.59;5000082;28;20118;-50
2022/05/10 01:07:27;;;;;;;3.65;0.80;;;;;;;16.15;39.60;101585.03;4994038;28;20049;-47
2022/05/10 01:10:08;;;;;;;1.60;0.60;;;;;;;16.23;39.30;101568.53;4996624;28;20038;-50
2022/05/10 01:12:51;;;;;;;3.97;0.93;;;;;;;16.23;39.43;101574.75;5013683;28;20057;-50
2022/05/10 01:15:22;;;;;;;2.78;0.90;;;;;;;16.17;40.18;101570.25;5013020;28;20056;-48
2022/05/10 01:17:53;;;;;;;4.60;0.80;;;;;;;16.19;39.69;101578.94;4983342;28;20027;-50
2022/05/10 01:20:26;;;;;;;2.58;0.70;;;;;;;16.03;36.14;101574.16;4974259;28;20492;-50
2022/05/10 01:23:07;;;;;;;1.27;0.60;;;;;;;15.83;37.63;101579.75;4985752;28;20101;-49
2022/05/10 01:25:58;;;;;;;3.75;0.60;;;;;;;15.90;39.34;101571.59;4993707;28;20570;-50
2022/05/10 01:28:38;;;;;;;2.55;0.85;;;;;;;15.94;39.69;101565.53;5009612;28;20030;-49
2022/05/10 01:31:12;;;;;;;2.25;0.50;;;;;;;16.00;38.75;101574.59;5013420;28;20029;-49
2022/05/10 01:33:47;;;;;;;3.45;0.70;;;;;;;15.85;38.94;101558.75;5006265;28;20026;-50
2022/05/10 01:36:32;;;;;;;2.58;1.00;;;;;;;15.98;38.87;101555.91;4973848;28;20033;-48
2022/05/10 01:39:09;;;;;;;3.45;0.90;;;;;;;15.72;38.46;101567.00;4974022;28;20031;-49
2022/05/10 01:42:01;;;;;;;2.63;0.65;;;;;;;15.75;37.66;101561.97;4984811;28;20030;-50
2022/05/10 01:44:52;;;;;;;3.22;0.98;;;;;;;15.51;37.85;101565.50;4987622;28;20030;-50
2022/05/10 01:47:37;;;;;;;3.72;0.77;;;;;;;15.65;39.58;101568.91;4991179;28;20156;-48
2022/05/10 01:50:24;;;;;;;2.28;0.70;;;;;;;15.75;36.66;101570.06;4992573;28;20495;-49
2022/05/10 01:53:02;;;;;;;6.72;1.10;;;;;;;15.81;38.86;101577.25;5005398;28;20114;-50
2022/05/10 01:55:40;;;;;;;2.28;0.60;;;;;;;15.97;37.54;101578.56;5003415;28;20057;-47
2022/05/10 01:58:14;;;;;;;2.17;0.70;;;;;;;15.99;36.94;101581.03;5011982;28;20134;-50
2022/05/10 02:00:45;;;;;;;3.10;0.77;;;;;;;16.29;35.60;101570.31;5012723;28;20061;-50
2022/05/10 02:03:42;;;;;;;4.45;1.17;;;;;;;16.26;35.65;101568.06;5008247;28;20279;-48
2022/05/10 02:06:16;;;;;;;2.10;0.50;;;;;;;16.39;35.53;101577.91;4992989;28;20113;-49
2022/05/10 02:09:01;;;;;;;1.27;0.50;;;;;;;16.22;34.20;101575.81;5000492;28;20025;-51
2022/05/10 02:11:28;;;;;;;4.13;0.70;;;;;;;16.34;34.03;101582.09;4994148;28;20114;-48
2022/05/10 02:14:09;;;;;;;5.85;1.17;;;;;;;16.50;34.17;101580.66;4998062;28;20041;-51
2022/05/10 02:16:46;;;;;;;1.75;0.50;;;;;;;16.36;34.02;101582.69;5012424;28;20030;-50
2022/05/10 02:19:50;;;;;;;1.92;0.65;;;;;;;16.55;34.58;101588.09;5012723;28;20058;-51
2022/05/10 02:22:34;;;;;;;2.78;1.20;;;;;;;16.74;34.17;101591.63;5002322;28;20471;-51
2022/05/10 02:25:08;;;;;;;3.15;0.60;;;;;;;17.07;32.89;101577.63;5018736;28;20117;-50
2022/05/10 02:27:42;;;;;;;3.47;0.90;;;;;;;16.86;34.01;101589.78;5010873;28;20030;-48
2022/05/10 02:30:14;;;;;;;1.05;0.60;;;;;;;16.50;35.99;101593.34;5011862;28;20044;-49
2022/05/10 02:33:06;;;;;;;2.67;0.73;;;;;;;16.23;36.99;101593.66;5029156;28;20035;-48
2022/05/10 02:35:55;;;;;;;4.30;1.10;;;;;;;15.61;37.13;101592.81;5031592;28;20056;-49
2022/05/10 02:38:31;;;;;;;2.17;0.88;;;;;;;15.27;38.12;101604.91;5021716;28;20069;-47
2022/05/10 02:41:01;;;;;;;2.45;0.73;;;;;;;15.17;40.03;101591.06;5007660;28;20033;-50
2022/05/10 02:43:34;;;;;;;4.38;1.58;;;;;;;14.78;40.44;101599.19;4998684;28;20022;-50
2022/05/10 02:46:00;;;;;;;3.17;0.80;;;;;;;14.59;40.75;101607.34;5016117;28;20032;-48
2022/05/10 02:48:36;;;;;;;3.50;0.73;;;;;;;14.29;41.04;101604.31;5001117;28;20101;-51
2022/05/10 02:51:02;;;;;;;2.83;0.68;;;;;;;14.26;41.00;101601.00;5003474;28;20038;-49
2022/05/10 02:53:29;;;;;;;5.20;0.88;;;;;;;13.98;41.12;101606.66;5012540;28;20034;-50
2022/05/10 02:56:05;;;;;;;2.47;0.70;;;;;;;13.77;41.67;101609.59;5031544;28;20058;-49
2022/05/10 02:58:50;;;;;;;3.97;0.90;;;;;;;13.68;42.15;101606.28;5019692;28;20363;-49
2022/05/10 03:01:32;;;;;;;2.47;0.70;;;;;;;13.21;42.65;101615.34;4992530;28;20030;-47
2022/05/10 03:03:58;;;;;;;2.15;0.68;;;;;;;13.12;43.15;101608.50;4992255;28;20384;-50
2022/05/10 03:06:26;;;;;;;2.45;0.95;;;;;;;13.11;43.78;101606.84;5006836;28;20022;-49
2022/05/10 03:08:54;;;;;;;2.03;0.60;;;;;;;12.94;44.26;101622.53;5031970;28;20265;-49
2022/05/10 03:11:20;;;;;;;5.28;0.73;;;;;;;12.81;44.68;101620.59;5031671;28;20415;-49
2022/05/10 03:13:50;;;;;;;3.70;0.93;;;;;;;12.50;45.46;101625.66;5031486;28;20394;-48
2022/05/10 03:16:17;;;;;;;3.38;0.77;;;;;;;12.66;45.32;101630.69;5008126;28;20054;-49
2022/05/10 03:18:44;;;;;;;2.05;0.70;;;;;;;12.52;45.88;101623.59;4991996;28;20038;-49
2022/05/10 03:21:11;;;;;;;3.08;0.73;;;;;;;12.54;46.22;101629.59;4998250;28;20374;-48
2022/05/10 03:23:37;;;;;;;3.97;1.05;;;;;;;12.51;46.24;101630.00;5018488;28;20037;-50
2022/05/10 03:26:04;;;;;;;4.00;0.68;;;;;;;12.47;46.18;101634.94;5031323;28;20095;-49
2022/05/10 03:28:31;;;;;;;4.40;1.13;;;;;;;12.42;46.23;101637.38;5027031;28;20051;-48
2022/05/10 03:30:57;;;;;;;5.72;1.13;;;;;;;12.57;46.27;101645.31;5004099;28;20513;-49
2022/05/10 03:33:24;;;;;;;2.40;0.73;;;;;;;12.40;46.49;101642.94;5007002;28;20026;-50
2022/05/10 03:35:50;;;;;;;3.15;0.95;;;;;;;12.33;46.60;101647.47;5021768;28;20026;-49
2022/05/10 03:38:16;;;;;;;1.55;0.65;;;;;;;12.28;46.76;101638.34;5011653;28;20034;-48
2022/05/10 03:40:44;;;;;;;2.70;0.90;;;;;;;12.18;46.99;101649.44;5011540;28;20117;-46
2022/05/10 03:43:10;;;;;;;2.45;0.88;;;;;;;11.94;47.81;101652.53;5013965;28;20034;-49
2022/05/10 03:45:37;;;;;;;3.45;0.77;;;;;;;11.99;47.54;101652.78;5012284;28;20032;-46
2022/05/10 03:48:04;;;;;;;2.70;0.95;;;;;;;11.87;48.04;101653.31;5015934;28;20052;-50
2022/05/10 03:50:30;;;;;;;3.03;0.60;;;;;;;11.85;47.59;101649.19;5021936;28;20030;-49
2022/05/10 03:52:57;;;;;;;2.97;0.52;;;;;;;11.76;48.10;101656.50;5027346;28;20029;-47
2022/05/10 03:55:25;;;;;;;5.03;0.65;;;;;;;11.80;48.20;101649.75;5034695;28;20124;-49
2022/05/10 03:57:55;;;;;;;1.52;0.70;;;;;;;11.85;48.61;101655.38;5034823;28;20025;-49
2022/05/10 04:00:25;;;;;;;3.55;0.70;;;;;;;11.89;48.38;101667.41;5034694;28;20025;-50
2022/05/10 04:02:52;;;;;;;2.30;0.80;;;;;;;11.92;48.35;101665.34;5034227;28;20041;-46
2022/05/10 04:05:19;;;;;;;5.45;1.13;;;;;;;11.91;48.74;101669.03;5014896;28;20026;-49
2022/05/10 04:07:46;;;;;;;5.40;1.10;;;;;;;11.76;49.27;101677.97;5002154;28;20100;-47
2022/05/10 04:10:15;;;;;;;2.08;0.82;;;;;;;11.65;49.63;101673.13;5033996;28;20478;-48
2022/05/10 04:12:42;;;;;;;5.38;0.73;;;;;;;11.78;48.63;101681.31;5027709;28;20034;-50
2022/05/10 04:15:11;;;;;;;2.65;0.85;;;;;;;11.72;49.12;101676.72;5012033;28;20486;-47
2022/05/10 04:17:38;;;;;;;1.88;0.90;;;;;;;11.73;49.09;101681.06;5014447;28;20044;-50
2022/05/10 04:20:08;;;;;;;3.30;1.00;;;;;;;11.67;50.24;101684.50;5010514;28;20148;-48
2022/05/10 04:22:35;;;;;;;9.73;1.48;;;;;;;11.73;50.37;101685.59;5009179;28;20034;-49
2022/05/10 04:25:01;;;;;;;1.50;0.63;;;;;;;11.69;51.53;101695.84;5014665;28;20382;-47
2022/05/10 04:27:28;;;;;;;3.78;0.75;;;;;;;11.67;51.19;101695.22;5012005;28;20068;-50
2022/05/10 04:29:54;;;;;;;4.68;1.00;;;;;;;11.66;50.93;101703.44;5014185;28;20022;-49
2022/05/10 04:32:20;;;;;;;6.55;1.05;;;;;;;11.81;50.26;101706.91;5014273;28;20033;-49
2022/05/10 04:34:46;;;;;;;6.00;1.17;;;;;;;11.74;51.09;101711.38;5014251;28;20083;-49
2022/05/10 04:37:13;;;;;;;4.35;0.90;;;;;;;11.65;50.35;101713.34;5025223;28;20116;-50
2022/05/10 04:42:23;;;;;;;3.10;1.10;;;;;;;11.69;49.44;101711.94;5005841;28;20387;-47
2022/05/10 04:44:49;;;;;;;2.33;1.05;;;;;;;11.50;50.44;101715.28;4994220;28;20034;-49
2022/05/10 04:47:16;;;;;;;2.30;0.63;;;;;;;11.68;49.67;101721.03;4994371;28;20131;-50
2022/05/10 04:49:42;;;;;;;1.05;0.80;;;;;;;11.64;49.67;101722.41;4994549;28;20022;-47
2022/05/10 04:52:10;;;;;;;3.33;0.60;;;;;;;11.60;50.01;101715.78;4994231;28;20117;-49
2022/05/10 04:54:37;;;;;;;2.47;0.57;;;;;;;11.54;50.51;101727.25;4993652;28;20051;-46
2022/05/10 04:57:04;;;;;;;4.78;1.10;;;;;;;11.50;50.98;101717.97;4994362;28;20069;-50
2022/05/10 04:59:30;;;;;;;2.05;0.60;;;;;;;11.31;51.34;101727.44;4994601;28;20026;-47
2022/05/10 05:01:56;;;;;;;2.53;0.90;;;;;;;11.32;51.73;101726.41;5005196;28;20034;-48
2022/05/10 05:04:23;;;;;;;4.25;0.82;;;;;;;11.03;52.90;101724.63;5025765;28;20030;-48
2022/05/10 05:06:51;;;;;;;3.13;0.68;;;;;;;11.15;52.44;101728.47;5033634;28;20025;-48
2022/05/10 05:09:17;;;;;;;2.92;0.93;;;;;;;11.26;52.11;101733.34;5033388;28;20128;-49
2022/05/10 05:11:44;;;;;;;2.05;0.80;;;;;;;11.22;51.55;101731.25;5033629;28;20025;-50
2022/05/10 05:14:10;;;;;;;2.53;0.70;;;;;;;11.22;51.20;101734.78;5032739;28;20458;-50
2022/05/10 05:16:37;;;;;;;4.13;0.60;;;;;;;11.17;51.31;101723.78;5001646;28;20041;-49
2022/05/10 05:19:04;;;;;;;3.65;0.82;;;;;;;11.21;52.13;101726.91;4994454;28;20586;-50
2022/05/10 05:21:30;;;;;;;2.38;0.70;;;;;;;11.04;52.03;101727.09;5013022;28;20394;-50
2022/05/10 05:23:57;;;;;;;3.00;1.02;;;;;;;11.26;51.36;101729.84;5030838;28;20473;-47
2022/05/10 05:26:24;;;;;;;5.47;0.80;;;;;;;10.99;52.29;101728.69;5024661;28;20037;-50
2022/05/10 05:28:51;;;;;;;2.63;0.63;;;;;;;10.95;52.76;101725.56;5013325;28;20050;-48
2022/05/10 05:31:18;;;;;;;5.15;1.10;;;;;;;11.04;52.11;101728.97;5007519;28;20052;-49
2022/05/10 05:33:44;;;;;;;3.80;0.85;;;;;;;10.91;52.01;101726.97;5012739;28;20040;-49
2022/05/10 05:36:10;;;;;;;5.88;0.70;;;;;;;10.97;51.66;101730.75;5011689;28;20033;-49
2022/05/10 05:38:36;;;;;;;4.75;0.93;;;;;;;11.03;52.09;101727.31;5013044;28;20038;-50
2022/05/10 05:41:02;;;;;;;1.73;0.60;;;;;;;11.01;52.25;101729.34;5007045;28;20026;-49
2022/05/10 05:43:29;;;;;;;3.42;0.80;;;;;;;11.02;52.00;101731.84;5010725;28;20040;-50
2022/05/10 05:45:55;;;;;;;1.25;0.52;;;;;;;10.90;52.40;101729.84;5005944;28;20033;-46
2022/05/10 05:48:21;;;;;;;1.92;0.50;;;;;;;11.03;51.73;101729.97;5012032;28;20096;-46
2022/05/10 05:50:48;;;;;;;4.82;0.68;;;;;;;10.94;51.32;101728.41;5010395;28;20034;-45
2022/05/10 05:53:14;;;;;;;3.25;0.60;;;;;;;11.00;51.37;101716.97;5007743;28;20127;-46
2022/05/10 05:55:42;;;;;;;1.83;0.68;;;;;;;11.06;50.68;101724.25;5012065;28;20056;-48
2022/05/10 05:58:10;;;;;;;2.08;0.52;;;;;;;11.14;50.48;101716.09;5007648;28;20092;-47
2022/05/10 06:00:37;;;;;;;0.95;0.55;;;;;;;10.94;50.94;101715.03;5006702;28;20386;-46
2022/05/10 06:03:04;;;;;;;2.13;0.68;;;;;;;10.99;50.99;101726.00;5005946;28;20028;-46
2022/05/10 06:05:31;;;;;;;1.92;0.45;;;;;;;10.92;50.82;101727.78;5023417;28;20032;-49
2022/05/10 06:07:58;;;;;;;3.53;0.60;;;;;;;10.94;50.87;101723.06;5004590;28;20037;-48
2022/05/10 06:10:25;;;;;;;5.07;0.65;;;;;;;10.94;51.14;101720.38;5013760;28;20033;-46
2022/05/10 06:12:51;;;;;;;1.50;0.43;;;;;;;10.86;51.83;101721.31;5012404;28;20025;-46
2022/05/10 06:15:19;;;;;;;2.97;0.80;;;;;;;10.81;51.86;101719.19;5012362;28;20030;-46
2022/05/10 06:17:46;;;;;;;3.50;0.60;;;;;;;10.54;52.01;101719.84;5010916;28;20061;-47
2022/05/10 06:20:15;;;;;;;4.15;0.77;;;;;;;10.56;51.85;101717.84;5012491;28;20101;-48
2022/05/10 06:22:44;;;;;;;2.95;0.45;;;;;;;10.58;52.01;101718.47;5016372;28;20021;-47
2022/05/10 06:25:17;;;;;;;1.20;0.68;;;;;;;10.53;51.55;101718.19;4992880;28;20022;-49
2022/05/10 06:27:46;;;;;;;2.10;0.75;;;;;;;10.59;51.65;101712.09;4991617;28;20165;-50
2022/05/10 06:30:13;;;;;;;3.05;0.60;;;;;;;10.49;51.36;101722.25;4992588;28;20034;-49
2022/05/10 06:32:40;;;;;;;6.28;0.98;;;;;;;10.56;50.89;101723.19;4992457;28;20023;-46
2022/05/10 06:35:08;;;;;;;2.78;0.60;;;;;;;10.52;51.81;101724.56;4992538;28;20532;-46
2022/05/10 06:40:19;;;;;;;8.13;0.80;;;;;;;10.43;51.97;101722.97;4992989;28;20061;-46
2022/05/10 06:42:45;;;;;;;1.30;0.55;;;;;;;10.36;52.26;101720.22;5000651;28;20105;-46
2022/05/10 06:45:15;;;;;;;1.67;0.50;;;;;;;10.39;52.39;101721.72;5010593;28;20466;-47
2022/05/10 06:47:42;;;;;;;4.53;0.70;;;;;;;10.40;52.22;101723.38;5013714;28;20092;-47
2022/05/10 06:50:16;;;;;;;4.43;0.70;;;;;;;10.37;52.46;101729.06;5017084;28;20030;-46
2022/05/10 06:52:42;;;;;;;3.47;0.70;;;;;;;10.19;53.16;101721.34;5011697;28;20026;-49
2022/05/10 06:55:10;;;;;;;1.67;0.50;;;;;;;10.24;53.10;101725.19;5005293;28;20054;-46
2022/05/10 06:57:37;;;;;;;3.95;0.50;;;;;;;10.15;53.55;101726.22;5011923;28;20470;-46
2022/05/10 07:00:06;;;;;;;1.83;0.52;;;;;;;10.17;53.92;101728.75;5005815;28;20045;-46
2022/05/10 07:02:32;;;;;;;1.42;0.80;;;;;;;10.16;53.92;101727.06;5007476;28;20029;-48
2022/05/10 07:04:58;;;;;;;3.15;0.60;;;;;;;10.12;54.23;101731.97;5001520;28;20034;-46
2022/05/10 07:07:24;;;;;;;1.38;0.55;;;;;;;9.97;55.07;101733.75;5011962;28;20033;-46
2022/05/10 07:09:52;;;;;;;5.03;0.47;;;;;;;10.00;55.15;101738.75;5005657;28;20032;-49
2022/05/10 07:12:18;;;;;;;3.35;0.50;;;;;;;10.07;55.86;101736.19;5011533;28;20414;-47
2022/05/10 07:14:45;;;;;;;2.80;0.57;;;;;;;9.97;55.21;101733.75;5005116;28;20052;-47
2022/05/10 07:17:15;;;;;;;1.00;0.40;;;;;;;9.86;55.54;101727.00;5012004;28;20042;-46
2022/05/10 07:19:41;;;;;;;3.97;0.63;;;;;;;9.82;56.49;101730.19;5003190;28;20352;-49
2022/05/10 07:22:08;;;;;;;3.15;0.70;;;;;;;9.75;56.32;101730.91;5015415;28;20071;-49
2022/05/10 07:24:34;;;;;;;4.20;0.88;;;;;;;9.80;56.58;101725.03;5012149;28;20525;-49
2022/05/10 07:27:00;;;;;;;2.70;0.60;;;;;;;9.92;56.48;101730.78;5035695;28;20033;-49
2022/05/10 07:29:26;;;;;;;2.38;0.73;;;;;;;9.89;55.72;101725.81;5035340;28;20091;-47
2022/05/10 07:31:55;;;;;;;2.40;0.60;;;;;;;9.79;56.31;101724.22;5017771;28;20054;-46
2022/05/10 07:34:21;;;;;;;6.45;0.70;;;;;;;10.03;55.83;101743.72;5021309;28;20029;-46
2022/05/10 07:36:48;;;;;;;3.25;0.90;;;;;;;10.04;55.78;101748.06;5034827;28;20017;-47
2022/05/10 07:39:18;;;;;;;3.20;0.70;;;;;;;9.87;55.82;101747.38;5020783;28;20030;-48
2022/05/10 07:41:44;;;;;;;2.90;0.45;;;;;;;9.88;55.93;101743.69;5014586;28;20029;-50
2022/05/10 07:44:12;;;;;;;1.88;0.50;;;;;;;9.85;56.13;101744.06;5011540;28;20033;-48
2022/05/10 07:46:38;;;;;;;3.67;0.95;;;;;;;9.91;55.88;101745.19;5015234;28;20540;-49
2022/05/10 07:49:04;;;;;;;1.58;0.50;;;;;;;9.90;56.66;101755.03;5004210;28;20057;-46
2022/05/10 07:51:31;;;;;;;1.88;0.88;;;;;;;9.65;57.70;101750.88;5025209;28;20485;-45
2022/05/10 07:53:57;;;;;;;3.50;0.60;;;;;;;9.78;57.25;101753.81;5034641;28;20033;-46
2022/05/10 07:56:26;;;;;;;3.80;0.90;;;;;;;10.10;55.71;101752.69;5034402;28;20045;-46
2022/05/10 07:58:54;;;;;;;3.92;0.55;;;;;;;9.98;55.24;101751.47;5034749;28;20025;-48
2022/05/10 08:01:21;;;;;;;3.40;0.63;;;;;;;9.93;56.50;101752.00;5030339;28;20403;-46
2022/05/10 08:03:47;;;;;;;1.98;0.50;;;;;;;9.91;56.30;101754.03;5007385;28;20466;-49
2022/05/10 08:06:15;;;;;;;2.08;0.57;;;;;;;9.88;56.70;101750.88;5007718;28;20037;-49
2022/05/10 08:08:42;;;;;;;1.35;0.50;;;;;;;9.78;56.73;101745.78;4995507;28;20037;-47
2022/05/10 08:11:09;;;;;;;2.05;0.38;;;;;;;9.88;56.49;101751.69;5004671;28;20107;-50
2022/05/10 08:13:37;;;;;;;1.70;0.60;;;;;;;9.66;57.35;101748.03;5010947;28;20041;-49
2022/05/10 08:16:04;;;;;;;1.02;0.57;;;;;;;9.85;56.90;101744.06;5014669;28;20026;-49
2022/05/10 08:18:30;;;;;;;0.77;0.40;;;;;;;9.72;57.05;101741.16;5005458;28;20038;-49
2022/05/10 08:20:58;;;;;;;1.73;0.40;;;;;;;9.79;57.50;101737.56;4994595;28;20441;-49
2022/05/10 08:23:31;;;;;;;2.90;0.70;;;;;;;9.78;57.21;101737.75;5008489;28;20030;-48
2022/05/10 08:25:58;;;;;;;1.52;0.47;;;;;;;9.67;58.31;101720.31;5014391;28;20486;-50
2022/05/10 08:28:28;;;;;;;1.85;0.55;;;;;;;9.67;57.56;101728.31;5013878;28;20034;-48
2022/05/10 08:30:55;;;;;;;2.30;0.55;;;;;;;9.66;58.47;101734.69;5003375;28;20029;-49
2022/05/10 08:33:30;;;;;;;1.10;0.63;;;;;;;9.59;58.23;101736.38;4994503;28;20080;-48
2022/05/10 08:35:57;;;;;;;3.30;1.73;;;;;;;9.54;58.57;101738.75;4994492;28;20038;-50
2022/05/10 08:38:25;;;;;;;3.63;0.50;;;;;;;9.38;59.03;101738.84;4994428;28;20031;-48
2022/05/10 08:41:20;;;;;;;1.05;0.50;;;;;;;9.55;58.38;101736.91;4995353;28;20525;-49
2022/05/10 08:44:12;;;;;;;2.13;0.50;;;;;;;9.49;58.56;101736.63;5007956;28;20033;-48
2022/05/10 08:46:42;;;;;;;1.65;0.43;;;;;;;9.42;59.03;101734.81;5004742;28;20065;-49
2022/05/10 08:49:36;;;;;;;2.60;0.82;;;;;;;9.54;58.52;101733.41;5013401;28;20060;-49
2022/05/10 08:52:06;;;;;;;1.55;0.50;;;;;;;9.53;58.22;101739.75;5028232;28;20385;-49
2022/05/10 08:54:34;;;;;;;2.30;0.60;;;;;;;9.48;58.76;101745.63;5020285;28;20029;-46
2022/05/10 08:57:16;;;;;;;2.50;0.70;;;;;;;9.38;59.07;101738.84;5011448;28;20102;-45
2022/05/10 08:59:51;;;;;;;2.17;0.60;;;;;;;9.66;58.11;101739.16;4994268;28;20543;-47
2022/05/10 09:02:28;;;;;;;1.75;0.50;;;;;;;9.63;57.30;101740.38;4996180;28;20030;-49
2022/05/10 09:04:59;;;;;;;2.88;0.77;;;;;;;9.60;57.72;101743.38;4995940;28;20038;-49
2022/05/10 09:07:40;;;;;;;2.10;0.52;;;;;;;9.58;57.50;101745.41;4994088;28;20109;-48
2022/05/10 09:10:18;;;;;;;0.98;0.40;;;;;;;9.44;58.59;101748.88;5010442;28;20045;-50
2022/05/10 09:13:01;;;;;;;1.25;0.30;;;;;;;9.40;59.19;101752.88;5013101;28;20014;-49
2022/05/10 09:15:35;;;;;;;4.22;0.50;;;;;;;9.49;58.68;101751.81;4994108;28;20034;-49
2022/05/10 09:18:22;;;;;;;3.10;0.60;;;;;;;9.33;58.72;101746.56;4993040;28;20031;-48
2022/05/10 09:21:16;;;;;;;1.80;0.38;;;;;;;9.19;59.27;101754.31;5017532;28;20026;-48
2022/05/10 09:23:53;;;;;;;1.60;0.50;;;;;;;9.48;58.59;101747.47;5033091;28;20033;-49
2022/05/10 09:26:23;;;;;;;0.93;0.60;;;;;;;9.39;58.78;101754.72;5033251;28;20091;-48
2022/05/10 09:29:16;;;;;;;1.27;0.45;;;;;;;9.18;59.37;101755.31;5033318;28;20099;-48
2022/05/10 09:34:45;;;;;;;3.53;0.85;;;;;;;9.41;58.55;101752.69;4993812;28;20033;-47
2022/05/10 09:37:17;;;;;;;2.25;0.40;;;;;;;9.52;57.82;101746.94;5023213;28;20041;-49
2022/05/10 09:40:01;;;;;;;1.33;0.50;;;;;;;9.61;57.73;101750.41;5006218;28;20037;-49
2022/05/10 09:42:34;;;;;;;1.35;0.30;;;;;;;9.66;56.88;101755.19;5007697;28;20121;-48
2022/05/10 09:45:02;;;;;;;0.65;0.38;;;;;;;9.56;58.66;101754.63;5007597;28;20474;-49
2022/05/10 09:47:30;;;;;;;2.67;0.50;;;;;;;9.59;58.03;101749.75;5021006;23;20069;-49
2022/05/10 09:50:15;;;;;;;9.38;0.80;;;;;;;9.49;58.34;101762.50;4992174;28;20088;-49
2022/05/10 09:52:42;;;;;;;1.77;0.50;;;;;;;9.75;57.89;101756.81;4988909;28;20030;-47
2022/05/10 09:55:19;;;;;;;3.85;0.60;;;;;;;9.63;58.02;101755.56;4990626;28;20081;-47
2022/05/10 09:57:47;;;;;;;1.88;0.38;;;;;;;9.54;57.93;101760.13;4991568;28;20034;-45
2022/05/10 10:00:15;;;;;;;1.10;0.30;;;;;;;9.56;57.90;101763.47;4992025;28;20029;-48
2022/05/10 10:02:43;;;;;;;2.28;0.60;;;;;;;9.55;58.16;101760.97;4990113;28;20105;-48
2022/05/10 10:05:29;;;;;;;1.83;0.47;;;;;;;9.48;58.13;101764.34;4990785;28;20040;-49
2022/05/10 10:07:57;;;;;;;1.90;0.68;;;;;;;9.45;58.17;101756.69;4977863;28;20031;-49
2022/05/10 10:10:34;;;;;;;2.63;0.50;;;;;;;9.37;58.19;101761.25;4992055;28;20050;-46
2022/05/10 10:13:32;;;;;;;1.80;0.50;;;;;;;9.42;58.06;101759.69;4990283;28;20073;-46
2022/05/10 10:16:00;;;;;;;3.67;0.70;;;;;;;8.73;59.21;101759.50;4990915;28;20042;-47
2022/05/10 10:19:07;;;;;;;3.50;0.85;;;;;;;8.18;60.91;101764.75;4991060;28;20578;-45
2022/05/10 10:22:10;;;;;;;3.03;0.73;;;;;;;7.90;61.76;101770.41;4952959;28;20039;-49
2022/05/10 10:24:50;;;;;;;1.02;0.75;;;;;;;7.88;61.77;101771.56;4987826;28;20034;-46
2022/05/10 10:27:44;;;;;;;2.75;0.52;;;;;;;7.77;62.13;101772.72;4990108;28;20045;-49
2022/05/10 10:30:19;;;;;;;2.88;0.80;;;;;;;8.15;60.77;101773.91;4985487;28;20053;-49
2022/05/10 10:33:12;;;;;;;1.95;0.55;;;;;;;8.36;59.65;101776.09;4990558;28;20033;-49
2022/05/10 10:36:17;;;;;;;2.22;0.55;;;;;;;8.15;60.37;101781.06;4990479;28;20483;-46
2022/05/10 10:39:07;;;;;;;1.58;0.60;;;;;;;8.40;59.64;101781.94;4973132;28;20069;-47
2022/05/10 10:41:47;;;;;;;1.17;0.50;;;;;;;7.84;61.10;101780.91;4989305;28;20018;-49
2022/05/10 10:44:20;;;;;;;0.80;0.50;;;;;;;7.96;60.86;101774.25;4991020;28;20030;-49
2022/05/10 10:47:05;;;;;;;1.83;0.52;;;;;;;7.87;60.98;101776.06;4990562;28;20029;-46
2022/05/10 10:49:49;;;;;;;0.90;0.40;;;;;;;7.79;61.28;101781.41;4991415;28;20109;-49
2022/05/10 10:52:17;;;;;;;2.67;0.77;;;;;;;7.63;61.56;101778.69;4990458;28;20030;-49
2022/05/10 10:54:44;;;;;;;2.58;0.50;;;;;;;7.64;61.39;101786.53;4991420;28;20045;-48
2022/05/10 10:57:32;;;;;;;1.10;0.40;;;;;;;7.45;62.56;101789.47;4991327;28;20038;-49
2022/05/10 11:00:31;;;;;;;1.88;0.60;;;;;;;7.81;61.25;101782.06;4990879;28;20517;-49
2022/05/10 11:03:20;;;;;;;1.45;0.50;;;;;;;7.35;63.10;101776.28;4971752;28;20049;-49
2022/05/10 11:06:04;;;;;;;1.15;0.47;;;;;;;7.53;63.93;101784.16;4985392;28;20033;-47
2022/05/10 11:08:36;;;;;;;2.17;0.70;;;;;;;7.68;64.05;101782.53;4991058;28;20076;-48
2022/05/10 11:11:08;;;;;;;2.15;0.40;;;;;;;7.82;63.93;101782.88;4973094;28;20098;-48
2022/05/10 11:13:42;;;;;;;1.38;0.50;;;;;;;7.83;65.10;101781.91;4989721;28;20052;-47
2022/05/10 11:16:43;;;;;;;2.00;0.40;;;;;;;8.07;63.79;101781.91;4992055;28;20430;-46
2022/05/10 11:19:35;;;;;;;4.68;0.60;;;;;;;8.08;64.31;101791.56;4956734;28;20096;-47
2022/05/10 11:22:26;;;;;;;0.70;0.30;;;;;;;8.12;64.17;101792.09;4983679;28;20027;-46
2022/05/10 11:25:07;;;;;;;1.08;0.50;;;;;;;8.10;65.42;101799.41;4990815;28;20027;-45
2022/05/10 11:27:53;;;;;;;5.28;0.50;;;;;;;8.30;64.79;101798.06;4972524;28;20046;-48
2022/05/10 11:30:21;;;;;;;1.33;0.40;;;;;;;8.17;65.16;101798.59;4986185;28;20109;-49
2022/05/10 11:33:03;;;;;;;1.38;0.40;;;;;;;8.30;64.18;101797.25;4991763;28;20036;-48
2022/05/10 11:35:47;;;;;;;2.15;0.47;;;;;;;8.18;65.84;101797.56;4992006;28;20031;-46
2022/05/10 11:38:41;;;;;;;1.45;0.50;;;;;;;8.23;64.98;101801.59;4991746;28;20038;-47
2022/05/10 11:41:29;;;;;;;1.42;0.30;;;;;;;8.35;63.79;101795.75;4992312;28;20105;-48
2022/05/10 11:44:22;;;;;;;0.88;0.30;;;;;;;8.42;63.40;101795.91;4991467;28;20026;-46
2022/05/10 11:47:05;;;;;;;3.75;0.63;;;;;;;8.38;64.03;101800.78;4990625;28;20059;-48
2022/05/10 11:49:55;;;;;;;2.50;0.60;;;;;;;8.41;63.78;101802.28;4980625;28;20030;-47
2022/05/10 11:52:27;;;;;;;1.73;0.68;;;;;;;8.54;62.15;101801.75;4978860;28;20026;-46
2022/05/10 11:55:18;;;;;;;0.50;0.30;;;;;;;8.50;63.24;101801.28;5000293;28;20506;-46
2022/05/10 11:57:44;;;;;;;1.30;0.40;;;;;;;8.47;63.31;101804.25;4986228;28;20462;-47
2022/05/10 12:00:31;;;;;;;1.88;0.50;;;;;;;8.50;62.68;101803.94;4991075;28;20037;-45
2022/05/10 12:03:29;;;;;;;0.52;0.40;;;;;;;8.58;63.02;101806.56;4957493;28;20086;-47
2022/05/10 12:06:24;;;;;;;3.55;0.70;;;;;;;8.33;63.66;101808.41;4990456;28;20081;-48